Melrose, Kansas
Current Conditions -  °F | °C
As of 10:53 AM on Sunday 23 Nov 2014 (Local Time) from KJLN Reporting Station
Overcast Overcast  
Wind Chill: 62°   Ceiling: 1800
Heat Index: 62°   Visibility: 10mi
Dew Point: 55°   Wind: 9mph
Humidity: 78%   Direction: 180°S
Pressure: 29.45"   Gusts: NA
Location:  37.0587°N, 94.8848°W
Report Text: KJLN 231653Z 18008KT 10SM BKN018 OVC029 17/13 A2945 RMK AO2 SLP967 T01670128
Loading
Personal Weather Stations






























Interactive Weather Map New forecast layout! Learn more

10-Day Weather Forecast

Advertisements
Track Severe Weather on mobile